sensor_id;sensor_type;location;lat;lon;timestamp;P1;durP1;ratioP1;P2;durP2;ratioP2
66169;SDS011;52971;44.024;20.456;2022-07-05T00:02:16;21.63;;;19.35;;
66169;SDS011;52971;44.024;20.456;2022-07-05T00:04:41;22.60;;;20.20;;
66169;SDS011;52971;44.024;20.456;2022-07-05T00:07:07;22.98;;;20.67;;
66169;SDS011;52971;44.024;20.456;2022-07-05T00:09:55;23.15;;;20.40;;
66169;SDS011;52971;44.024;20.456;2022-07-05T00:12:24;22.55;;;20.40;;
66169;SDS011;52971;44.024;20.456;2022-07-05T00:14:52;22.52;;;20.15;;
66169;SDS011;52971;44.024;20.456;2022-07-05T00:17:18;23.95;;;21.58;;
66169;SDS011;52971;44.024;20.456;2022-07-05T00:19:44;22.30;;;19.85;;
66169;SDS011;52971;44.024;20.456;2022-07-05T00:22:09;22.48;;;20.10;;
66169;SDS011;52971;44.024;20.456;2022-07-05T00:24:35;21.73;;;19.40;;
66169;SDS011;52971;44.024;20.456;2022-07-05T00:27:01;22.80;;;18.98;;
66169;SDS011;52971;44.024;20.456;2022-07-05T00:29:27;22.35;;;19.63;;
66169;SDS011;52971;44.024;20.456;2022-07-05T00:31:52;22.00;;;19.65;;
66169;SDS011;52971;44.024;20.456;2022-07-05T00:34:18;23.58;;;21.10;;
66169;SDS011;52971;44.024;20.456;2022-07-05T00:36:43;25.42;;;22.58;;
66169;SDS011;52971;44.024;20.456;2022-07-05T00:39:09;24.60;;;22.02;;
66169;SDS011;52971;44.024;20.456;2022-07-05T00:41:35;22.80;;;20.58;;
66169;SDS011;52971;44.024;20.456;2022-07-05T00:44:03;25.08;;;21.30;;
66169;SDS011;52971;44.024;20.456;2022-07-05T00:46:30;23.38;;;20.85;;
66169;SDS011;52971;44.024;20.456;2022-07-05T00:48:57;23.50;;;21.23;;
66169;SDS011;52971;44.024;20.456;2022-07-05T00:51:23;22.52;;;20.25;;
66169;SDS011;52971;44.024;20.456;2022-07-05T00:53:49;22.60;;;20.30;;
66169;SDS011;52971;44.024;20.456;2022-07-05T00:56:15;22.40;;;20.00;;
66169;SDS011;52971;44.024;20.456;2022-07-05T00:58:41;24.00;;;20.52;;
66169;SDS011;52971;44.024;20.456;2022-07-05T01:01:07;22.17;;;19.80;;
66169;SDS011;52971;44.024;20.456;2022-07-05T01:03:34;23.13;;;20.88;;
66169;SDS011;52971;44.024;20.456;2022-07-05T01:06:00;22.98;;;20.75;;
66169;SDS011;52971;44.024;20.456;2022-07-05T01:08:28;23.35;;;20.75;;
66169;SDS011;52971;44.024;20.456;2022-07-05T01:10:55;23.85;;;21.45;;
66169;SDS011;52971;44.024;20.456;2022-07-05T01:13:21;23.58;;;21.08;;
66169;SDS011;52971;44.024;20.456;2022-07-05T01:15:48;23.23;;;20.85;;
66169;SDS011;52971;44.024;20.456;2022-07-05T01:18:14;23.17;;;20.10;;
66169;SDS011;52971;44.024;20.456;2022-07-05T01:20:40;21.63;;;19.63;;
66169;SDS011;52971;44.024;20.456;2022-07-05T01:23:06;25.00;;;19.48;;
66169;SDS011;52971;44.024;20.456;2022-07-05T01:25:33;25.00;;;20.90;;
66169;SDS011;52971;44.024;20.456;2022-07-05T01:27:59;21.50;;;19.35;;
66169;SDS011;52971;44.024;20.456;2022-07-05T01:30:25;21.92;;;19.75;;
66169;SDS011;52971;44.024;20.456;2022-07-05T01:32:51;22.83;;;20.42;;
66169;SDS011;52971;44.024;20.456;2022-07-05T01:35:17;21.95;;;19.85;;
66169;SDS011;52971;44.024;20.456;2022-07-05T01:37:48;20.50;;;18.58;;
66169;SDS011;52971;44.024;20.456;2022-07-05T01:40:15;22.95;;;20.50;;
66169;SDS011;52971;44.024;20.456;2022-07-05T01:42:42;23.45;;;21.23;;
66169;SDS011;52971;44.024;20.456;2022-07-05T01:45:08;25.05;;;20.90;;
66169;SDS011;52971;44.024;20.456;2022-07-05T01:47:43;23.60;;;21.20;;
66169;SDS011;52971;44.024;20.456;2022-07-05T01:50:09;21.02;;;19.08;;
66169;SDS011;52971;44.024;20.456;2022-07-05T01:52:38;22.27;;;20.17;;
66169;SDS011;52971;44.024;20.456;2022-07-05T01:55:08;23.27;;;20.83;;
66169;SDS011;52971;44.024;20.456;2022-07-05T01:57:33;23.55;;;21.25;;
66169;SDS011;52971;44.024;20.456;2022-07-05T01:59:59;23.98;;;20.40;;
66169;SDS011;52971;44.024;20.456;2022-07-05T02:02:24;22.83;;;20.42;;
66169;SDS011;52971;44.024;20.456;2022-07-05T02:04:49;22.83;;;20.50;;
66169;SDS011;52971;44.024;20.456;2022-07-05T02:07:15;23.15;;;20.77;;
66169;SDS011;52971;44.024;20.456;2022-07-05T02:09:41;25.38;;;22.23;;
66169;SDS011;52971;44.024;20.456;2022-07-05T02:12:06;24.63;;;21.60;;
66169;SDS011;52971;44.024;20.456;2022-07-05T02:14:32;24.65;;;21.88;;
66169;SDS011;52971;44.024;20.456;2022-07-05T02:16:58;27.17;;;22.92;;
66169;SDS011;52971;44.024;20.456;2022-07-05T02:19:23;24.00;;;21.67;;
66169;SDS011;52971;44.024;20.456;2022-07-05T02:21:49;25.77;;;21.77;;
66169;SDS011;52971;44.024;20.456;2022-07-05T02:24:15;25.38;;;22.65;;
66169;SDS011;52971;44.024;20.456;2022-07-05T02:26:40;25.45;;;23.00;;
66169;SDS011;52971;44.024;20.456;2022-07-05T02:29:06;23.90;;;21.70;;
66169;SDS011;52971;44.024;20.456;2022-07-05T02:31:32;23.70;;;21.35;;
66169;SDS011;52971;44.024;20.456;2022-07-05T02:33:58;25.08;;;21.05;;
66169;SDS011;52971;44.024;20.456;2022-07-05T02:36:24;23.83;;;21.58;;
66169;SDS011;52971;44.024;20.456;2022-07-05T02:38:50;26.92;;;23.58;;
66169;SDS011;52971;44.024;20.456;2022-07-05T02:41:15;24.67;;;21.77;;
66169;SDS011;52971;44.024;20.456;2022-07-05T02:43:41;23.25;;;20.95;;
66169;SDS011;52971;44.024;20.456;2022-07-05T02:46:07;24.42;;;22.02;;
66169;SDS011;52971;44.024;20.456;2022-07-05T02:48:33;24.73;;;21.83;;
66169;SDS011;52971;44.024;20.456;2022-07-05T02:51:00;22.67;;;20.45;;
66169;SDS011;52971;44.024;20.456;2022-07-05T02:53:26;24.05;;;21.70;;
66169;SDS011;52971;44.024;20.456;2022-07-05T02:55:52;24.02;;;21.63;;
66169;SDS011;52971;44.024;20.456;2022-07-05T02:58:17;25.33;;;22.92;;
66169;SDS011;52971;44.024;20.456;2022-07-05T03:00:43;25.08;;;22.40;;
66169;SDS011;52971;44.024;20.456;2022-07-05T03:03:09;24.85;;;22.35;;
66169;SDS011;52971;44.024;20.456;2022-07-05T03:05:35;28.02;;;23.10;;
66169;SDS011;52971;44.024;20.456;2022-07-05T03:08:01;25.30;;;22.65;;
66169;SDS011;52971;44.024;20.456;2022-07-05T03:10:26;22.65;;;20.45;;
66169;SDS011;52971;44.024;20.456;2022-07-05T03:12:52;24.23;;;21.75;;
66169;SDS011;52971;44.024;20.456;2022-07-05T03:15:18;21.88;;;19.23;;
66169;SDS011;52971;44.024;20.456;2022-07-05T03:17:43;22.77;;;20.60;;
66169;SDS011;52971;44.024;20.456;2022-07-05T03:20:09;23.30;;;21.00;;
66169;SDS011;52971;44.024;20.456;2022-07-05T03:22:35;23.70;;;21.15;;
66169;SDS011;52971;44.024;20.456;2022-07-05T03:25:01;23.77;;;19.70;;
66169;SDS011;52971;44.024;20.456;2022-07-05T03:27:27;24.10;;;21.65;;
66169;SDS011;52971;44.024;20.456;2022-07-05T03:29:53;23.75;;;21.48;;
66169;SDS011;52971;44.024;20.456;2022-07-05T03:32:19;25.55;;;21.63;;
66169;SDS011;52971;44.024;20.456;2022-07-05T03:34:44;25.52;;;21.13;;
66169;SDS011;52971;44.024;20.456;2022-07-05T03:37:10;23.90;;;21.60;;
66169;SDS011;52971;44.024;20.456;2022-07-05T03:39:35;23.75;;;21.30;;
66169;SDS011;52971;44.024;20.456;2022-07-05T03:42:01;23.92;;;21.38;;
66169;SDS011;52971;44.024;20.456;2022-07-05T03:44:26;24.27;;;21.80;;
66169;SDS011;52971;44.024;20.456;2022-07-05T03:46:52;22.70;;;20.60;;
66169;SDS011;52971;44.024;20.456;2022-07-05T03:49:18;26.50;;;22.25;;
66169;SDS011;52971;44.024;20.456;2022-07-05T03:51:43;24.80;;;22.38;;
66169;SDS011;52971;44.024;20.456;2022-07-05T03:54:09;25.30;;;22.67;;
66169;SDS011;52971;44.024;20.456;2022-07-05T03:56:34;25.45;;;22.80;;
66169;SDS011;52971;44.024;20.456;2022-07-05T03:59:00;25.95;;;23.25;;
66169;SDS011;52971;44.024;20.456;2022-07-05T04:01:25;25.55;;;22.85;;
66169;SDS011;52971;44.024;20.456;2022-07-05T04:03:51;27.85;;;23.58;;
66169;SDS011;52971;44.024;20.456;2022-07-05T04:06:16;27.55;;;22.98;;
66169;SDS011;52971;44.024;20.456;2022-07-05T04:08:42;25.10;;;22.70;;
66169;SDS011;52971;44.024;20.456;2022-07-05T04:11:08;23.90;;;21.38;;
66169;SDS011;52971;44.024;20.456;2022-07-05T04:13:35;26.15;;;21.95;;
66169;SDS011;52971;44.024;20.456;2022-07-05T04:16:00;22.73;;;20.27;;
66169;SDS011;52971;44.024;20.456;2022-07-05T04:18:26;24.05;;;21.25;;
66169;SDS011;52971;44.024;20.456;2022-07-05T04:20:51;23.77;;;21.35;;
66169;SDS011;52971;44.024;20.456;2022-07-05T04:23:17;23.45;;;20.40;;
66169;SDS011;52971;44.024;20.456;2022-07-05T04:25:42;24.70;;;21.95;;
66169;SDS011;52971;44.024;20.456;2022-07-05T04:28:08;22.77;;;20.35;;
66169;SDS011;52971;44.024;20.456;2022-07-05T04:30:33;23.90;;;21.48;;
66169;SDS011;52971;44.024;20.456;2022-07-05T04:32:59;25.48;;;22.27;;
66169;SDS011;52971;44.024;20.456;2022-07-05T04:35:24;25.15;;;22.58;;
66169;SDS011;52971;44.024;20.456;2022-07-05T04:37:50;24.63;;;21.65;;
66169;SDS011;52971;44.024;20.456;2022-07-05T04:40:15;25.20;;;22.17;;
66169;SDS011;52971;44.024;20.456;2022-07-05T04:42:41;24.40;;;21.92;;
66169;SDS011;52971;44.024;20.456;2022-07-05T04:45:07;24.10;;;21.60;;
66169;SDS011;52971;44.024;20.456;2022-07-05T04:47:33;24.23;;;21.77;;
66169;SDS011;52971;44.024;20.456;2022-07-05T04:50:02;23.92;;;21.35;;
66169;SDS011;52971;44.024;20.456;2022-07-05T04:52:29;25.63;;;21.90;;
66169;SDS011;52971;44.024;20.456;2022-07-05T04:54:55;23.42;;;20.95;;
66169;SDS011;52971;44.024;20.456;2022-07-05T04:57:20;23.67;;;21.55;;
66169;SDS011;52971;44.024;20.456;2022-07-05T04:59:45;24.15;;;21.65;;
66169;SDS011;52971;44.024;20.456;2022-07-05T05:02:11;24.17;;;21.58;;
66169;SDS011;52971;44.024;20.456;2022-07-05T05:04:36;23.45;;;21.10;;
66169;SDS011;52971;44.024;20.456;2022-07-05T05:07:02;26.25;;;21.85;;
66169;SDS011;52971;44.024;20.456;2022-07-05T05:09:28;22.73;;;20.35;;
66169;SDS011;52971;44.024;20.456;2022-07-05T05:11:53;24.95;;;21.02;;
66169;SDS011;52971;44.024;20.456;2022-07-05T05:14:19;20.60;;;18.52;;
66169;SDS011;52971;44.024;20.456;2022-07-05T05:16:44;29.30;;;21.50;;
66169;SDS011;52971;44.024;20.456;2022-07-05T05:19:10;26.67;;;20.00;;
66169;SDS011;52971;44.024;20.456;2022-07-05T05:21:35;24.23;;;20.83;;
66169;SDS011;52971;44.024;20.456;2022-07-05T05:24:01;27.85;;;21.15;;
66169;SDS011;52971;44.024;20.456;2022-07-05T05:26:26;22.80;;;19.80;;
66169;SDS011;52971;44.024;20.456;2022-07-05T05:28:52;24.55;;;21.08;;
66169;SDS011;52971;44.024;20.456;2022-07-05T05:31:18;40.60;;;21.73;;
66169;SDS011;52971;44.024;20.456;2022-07-05T05:33:44;28.95;;;21.45;;
66169;SDS011;52971;44.024;20.456;2022-07-05T05:36:10;24.90;;;19.70;;
66169;SDS011;52971;44.024;20.456;2022-07-05T05:38:36;24.90;;;19.27;;
66169;SDS011;52971;44.024;20.456;2022-07-05T05:41:02;23.67;;;19.80;;
66169;SDS011;52971;44.024;20.456;2022-07-05T05:43:27;23.85;;;18.63;;
66169;SDS011;52971;44.024;20.456;2022-07-05T05:45:53;21.95;;;18.60;;
66169;SDS011;52971;44.024;20.456;2022-07-05T05:48:18;22.92;;;18.85;;
66169;SDS011;52971;44.024;20.456;2022-07-05T05:50:45;19.63;;;17.73;;
66169;SDS011;52971;44.024;20.456;2022-07-05T05:53:11;21.98;;;18.60;;
66169;SDS011;52971;44.024;20.456;2022-07-05T05:55:37;22.05;;;19.00;;
66169;SDS011;52971;44.024;20.456;2022-07-05T05:58:36;22.08;;;18.20;;
66169;SDS011;52971;44.024;20.456;2022-07-05T06:00:55;24.55;;;18.27;;
66169;SDS011;52971;44.024;20.456;2022-07-05T06:03:24;23.23;;;18.20;;
66169;SDS011;52971;44.024;20.456;2022-07-05T06:05:51;21.70;;;18.80;;
66169;SDS011;52971;44.024;20.456;2022-07-05T06:08:17;20.77;;;17.75;;
66169;SDS011;52971;44.024;20.456;2022-07-05T06:10:43;19.92;;;17.40;;
66169;SDS011;52971;44.024;20.456;2022-07-05T06:13:10;19.27;;;17.15;;
66169;SDS011;52971;44.024;20.456;2022-07-05T06:15:36;19.52;;;17.50;;
66169;SDS011;52971;44.024;20.456;2022-07-05T06:18:03;18.63;;;16.73;;
66169;SDS011;52971;44.024;20.456;2022-07-05T06:20:29;20.05;;;17.48;;
66169;SDS011;52971;44.024;20.456;2022-07-05T06:22:57;18.77;;;16.80;;
66169;SDS011;52971;44.024;20.456;2022-07-05T06:25:24;18.48;;;16.75;;
66169;SDS011;52971;44.024;20.456;2022-07-05T06:27:56;19.13;;;17.33;;
66169;SDS011;52971;44.024;20.456;2022-07-05T06:30:25;19.10;;;17.20;;
66169;SDS011;52971;44.024;20.456;2022-07-05T06:32:52;18.88;;;16.92;;
66169;SDS011;52971;44.024;20.456;2022-07-05T06:35:19;17.95;;;16.15;;
66169;SDS011;52971;44.024;20.456;2022-07-05T06:37:45;18.55;;;16.38;;
66169;SDS011;52971;44.024;20.456;2022-07-05T06:40:13;25.73;;;17.85;;
66169;SDS011;52971;44.024;20.456;2022-07-05T06:42:42;20.55;;;17.08;;
66169;SDS011;52971;44.024;20.456;2022-07-05T06:45:07;19.17;;;17.20;;
66169;SDS011;52971;44.024;20.456;2022-07-05T06:47:34;17.60;;;15.90;;
66169;SDS011;52971;44.024;20.456;2022-07-05T06:50:00;17.92;;;15.93;;
66169;SDS011;52971;44.024;20.456;2022-07-05T06:52:28;17.35;;;15.57;;
66169;SDS011;52971;44.024;20.456;2022-07-05T06:54:53;19.02;;;15.32;;
66169;SDS011;52971;44.024;20.456;2022-07-05T06:57:20;21.33;;;15.07;;
66169;SDS011;52971;44.024;20.456;2022-07-05T06:59:46;16.95;;;15.18;;
66169;SDS011;52971;44.024;20.456;2022-07-05T07:02:12;16.83;;;15.27;;
66169;SDS011;52971;44.024;20.456;2022-07-05T07:04:37;16.75;;;14.82;;
66169;SDS011;52971;44.024;20.456;2022-07-05T07:07:03;16.42;;;14.80;;
66169;SDS011;52971;44.024;20.456;2022-07-05T07:09:28;20.40;;;14.95;;
66169;SDS011;52971;44.024;20.456;2022-07-05T07:11:54;16.42;;;14.52;;
66169;SDS011;52971;44.024;20.456;2022-07-05T07:14:21;15.40;;;13.68;;
66169;SDS011;52971;44.024;20.456;2022-07-05T07:16:46;15.70;;;13.70;;
66169;SDS011;52971;44.024;20.456;2022-07-05T07:19:12;18.13;;;14.65;;
66169;SDS011;52971;44.024;20.456;2022-07-05T07:21:38;15.43;;;13.95;;
66169;SDS011;52971;44.024;20.456;2022-07-05T07:24:05;16.08;;;13.82;;
66169;SDS011;52971;44.024;20.456;2022-07-05T07:26:31;16.00;;;13.40;;
66169;SDS011;52971;44.024;20.456;2022-07-05T07:29:16;15.40;;;13.88;;
66169;SDS011;52971;44.024;20.456;2022-07-05T07:31:42;14.77;;;13.48;;
66169;SDS011;52971;44.024;20.456;2022-07-05T07:34:07;15.35;;;13.85;;
66169;SDS011;52971;44.024;20.456;2022-07-05T07:36:33;16.65;;;13.27;;
66169;SDS011;52971;44.024;20.456;2022-07-05T07:38:58;15.63;;;13.68;;
66169;SDS011;52971;44.024;20.456;2022-07-05T07:41:24;15.55;;;13.27;;
66169;SDS011;52971;44.024;20.456;2022-07-05T07:43:49;15.45;;;13.27;;
66169;SDS011;52971;44.024;20.456;2022-07-05T07:46:14;14.98;;;13.35;;
66169;SDS011;52971;44.024;20.456;2022-07-05T07:48:40;14.32;;;12.98;;
66169;SDS011;52971;44.024;20.456;2022-07-05T07:51:05;16.17;;;13.48;;
66169;SDS011;52971;44.024;20.456;2022-07-05T07:53:31;15.13;;;13.13;;
66169;SDS011;52971;44.024;20.456;2022-07-05T07:55:56;15.52;;;13.10;;
66169;SDS011;52971;44.024;20.456;2022-07-05T07:58:22;14.55;;;13.02;;
66169;SDS011;52971;44.024;20.456;2022-07-05T08:00:47;14.85;;;13.43;;
66169;SDS011;52971;44.024;20.456;2022-07-05T08:03:12;17.55;;;13.07;;
66169;SDS011;52971;44.024;20.456;2022-07-05T08:05:38;14.55;;;13.15;;
66169;SDS011;52971;44.024;20.456;2022-07-05T08:08:03;14.80;;;12.13;;
66169;SDS011;52971;44.024;20.456;2022-07-05T08:10:29;16.90;;;14.15;;
66169;SDS011;52971;44.024;20.456;2022-07-05T08:12:55;14.93;;;13.43;;
66169;SDS011;52971;44.024;20.456;2022-07-05T08:15:20;19.70;;;13.43;;
66169;SDS011;52971;44.024;20.456;2022-07-05T08:17:45;15.63;;;12.52;;
66169;SDS011;52971;44.024;20.456;2022-07-05T08:20:31;14.90;;;12.55;;
66169;SDS011;52971;44.024;20.456;2022-07-05T08:23:15;14.35;;;12.88;;
66169;SDS011;52971;44.024;20.456;2022-07-05T08:25:40;13.75;;;12.55;;
66169;SDS011;52971;44.024;20.456;2022-07-05T08:28:05;14.82;;;12.63;;
66169;SDS011;52971;44.024;20.456;2022-07-05T08:30:31;15.35;;;12.07;;
66169;SDS011;52971;44.024;20.456;2022-07-05T08:32:56;13.63;;;12.27;;
66169;SDS011;52971;44.024;20.456;2022-07-05T08:35:22;14.13;;;11.85;;
66169;SDS011;52971;44.024;20.456;2022-07-05T08:37:48;16.10;;;12.00;;
66169;SDS011;52971;44.024;20.456;2022-07-05T08:40:13;13.52;;;12.23;;
66169;SDS011;52971;44.024;20.456;2022-07-05T08:42:40;15.95;;;12.43;;
66169;SDS011;52971;44.024;20.456;2022-07-05T08:45:06;13.43;;;11.55;;
66169;SDS011;52971;44.024;20.456;2022-07-05T08:47:33;13.15;;;11.98;;
66169;SDS011;52971;44.024;20.456;2022-07-05T08:50:01;13.13;;;11.82;;
66169;SDS011;52971;44.024;20.456;2022-07-05T08:52:27;22.02;;;12.35;;
66169;SDS011;52971;44.024;20.456;2022-07-05T08:54:55;16.60;;;12.70;;
66169;SDS011;52971;44.024;20.456;2022-07-05T08:57:22;14.82;;;11.48;;
66169;SDS011;52971;44.024;20.456;2022-07-05T08:59:47;13.77;;;12.45;;
66169;SDS011;52971;44.024;20.456;2022-07-05T09:02:14;14.60;;;12.10;;
66169;SDS011;52971;44.024;20.456;2022-07-05T09:04:44;12.52;;;11.18;;
66169;SDS011;52971;44.024;20.456;2022-07-05T09:07:11;13.18;;;11.45;;
66169;SDS011;52971;44.024;20.456;2022-07-05T09:09:41;11.23;;;10.02;;
66169;SDS011;52971;44.024;20.456;2022-07-05T09:12:13;13.15;;;11.85;;
66169;SDS011;52971;44.024;20.456;2022-07-05T09:14:39;13.05;;;11.18;;
66169;SDS011;52971;44.024;20.456;2022-07-05T09:17:05;12.20;;;11.07;;
66169;SDS011;52971;44.024;20.456;2022-07-05T09:19:31;12.48;;;11.35;;
66169;SDS011;52971;44.024;20.456;2022-07-05T09:22:03;11.48;;;10.38;;
66169;SDS011;52971;44.024;20.456;2022-07-05T09:24:30;13.25;;;11.90;;
66169;SDS011;52971;44.024;20.456;2022-07-05T09:27:03;10.50;;;9.40;;
66169;SDS011;52971;44.024;20.456;2022-07-05T09:29:29;10.80;;;9.70;;
66169;SDS011;52971;44.024;20.456;2022-07-05T09:31:55;12.43;;;9.77;;
66169;SDS011;52971;44.024;20.456;2022-07-05T09:34:21;11.10;;;10.10;;
66169;SDS011;52971;44.024;20.456;2022-07-05T09:36:50;10.60;;;9.27;;
66169;SDS011;52971;44.024;20.456;2022-07-05T09:39:34;10.80;;;9.10;;
66169;SDS011;52971;44.024;20.456;2022-07-05T09:44:47;10.43;;;8.73;;
66169;SDS011;52971;44.024;20.456;2022-07-05T09:47:17;9.60;;;8.80;;
66169;SDS011;52971;44.024;20.456;2022-07-05T09:49:45;8.70;;;7.80;;
66169;SDS011;52971;44.024;20.456;2022-07-05T09:55:08;10.45;;;9.05;;
66169;SDS011;52971;44.024;20.456;2022-07-05T09:57:39;9.65;;;8.20;;
66169;SDS011;52971;44.024;20.456;2022-07-05T10:00:06;9.30;;;8.40;;
66169;SDS011;52971;44.024;20.456;2022-07-05T10:02:39;9.35;;;8.43;;
66169;SDS011;52971;44.024;20.456;2022-07-05T10:05:09;8.80;;;7.82;;
66169;SDS011;52971;44.024;20.456;2022-07-05T10:07:49;9.43;;;7.93;;
66169;SDS011;52971;44.024;20.456;2022-07-05T10:10:17;7.05;;;6.45;;
66169;SDS011;52971;44.024;20.456;2022-07-05T10:12:44;7.70;;;6.82;;
66169;SDS011;52971;44.024;20.456;2022-07-05T10:15:12;7.85;;;7.15;;
66169;SDS011;52971;44.024;20.456;2022-07-05T10:17:41;11.15;;;7.70;;
66169;SDS011;52971;44.024;20.456;2022-07-05T10:20:16;9.73;;;8.27;;
66169;SDS011;52971;44.024;20.456;2022-07-05T10:22:46;8.10;;;7.30;;
66169;SDS011;52971;44.024;20.456;2022-07-05T10:25:12;8.93;;;8.02;;
66169;SDS011;52971;44.024;20.456;2022-07-05T10:27:39;8.82;;;7.65;;
66169;SDS011;52971;44.024;20.456;2022-07-05T10:30:05;8.05;;;7.25;;
66169;SDS011;52971;44.024;20.456;2022-07-05T10:32:33;7.90;;;7.03;;
66169;SDS011;52971;44.024;20.456;2022-07-05T10:34:59;8.65;;;7.75;;
66169;SDS011;52971;44.024;20.456;2022-07-05T10:37:27;9.00;;;8.20;;
66169;SDS011;52971;44.024;20.456;2022-07-05T10:40:03;9.40;;;8.10;;
66169;SDS011;52971;44.024;20.456;2022-07-05T10:42:33;9.40;;;8.45;;
66169;SDS011;52971;44.024;20.456;2022-07-05T10:45:02;8.70;;;7.80;;
66169;SDS011;52971;44.024;20.456;2022-07-05T10:47:28;9.30;;;7.70;;
66169;SDS011;52971;44.024;20.456;2022-07-05T10:50:02;8.23;;;7.22;;
66169;SDS011;52971;44.024;20.456;2022-07-05T10:52:29;8.85;;;7.72;;
66169;SDS011;52971;44.024;20.456;2022-07-05T11:03:40;11.75;;;7.57;;
66169;SDS011;52971;44.024;20.456;2022-07-05T11:06:07;11.30;;;7.78;;
66169;SDS011;52971;44.024;20.456;2022-07-05T11:11:24;10.65;;;7.13;;
66169;SDS011;52971;44.024;20.456;2022-07-05T11:13:51;11.88;;;8.30;;
66169;SDS011;52971;44.024;20.456;2022-07-05T11:18:51;14.43;;;8.60;;
66169;SDS011;52971;44.024;20.456;2022-07-05T11:21:37;9.15;;;8.25;;
66169;SDS011;52971;44.024;20.456;2022-07-05T11:24:28;9.15;;;8.25;;
66169;SDS011;52971;44.024;20.456;2022-07-05T11:26:58;9.63;;;8.55;;
66169;SDS011;52971;44.024;20.456;2022-07-05T11:29:41;9.55;;;8.65;;
66169;SDS011;52971;44.024;20.456;2022-07-05T11:32:11;12.52;;;8.20;;
66169;SDS011;52971;44.024;20.456;2022-07-05T11:34:41;11.00;;;8.68;;
66169;SDS011;52971;44.024;20.456;2022-07-05T11:42:29;10.82;;;8.35;;
66169;SDS011;52971;44.024;20.456;2022-07-05T11:44:55;9.35;;;7.53;;
66169;SDS011;52971;44.024;20.456;2022-07-05T11:47:22;17.13;;;7.53;;
66169;SDS011;52971;44.024;20.456;2022-07-05T11:49:54;13.63;;;7.35;;
66169;SDS011;52971;44.024;20.456;2022-07-05T11:52:25;7.75;;;7.05;;
66169;SDS011;52971;44.024;20.456;2022-07-05T11:54:51;7.80;;;7.10;;
66169;SDS011;52971;44.024;20.456;2022-07-05T11:57:18;7.35;;;6.63;;
66169;SDS011;52971;44.024;20.456;2022-07-05T11:59:44;7.95;;;7.15;;
66169;SDS011;52971;44.024;20.456;2022-07-05T12:02:10;7.88;;;7.18;;
66169;SDS011;52971;44.024;20.456;2022-07-05T12:04:35;8.57;;;7.70;;
66169;SDS011;52971;44.024;20.456;2022-07-05T12:07:02;9.07;;;7.78;;
66169;SDS011;52971;44.024;20.456;2022-07-05T12:09:29;7.88;;;7.28;;
66169;SDS011;52971;44.024;20.456;2022-07-05T12:15:04;6.65;;;5.95;;
66169;SDS011;52971;44.024;20.456;2022-07-05T12:17:30;7.90;;;7.05;;
66169;SDS011;52971;44.024;20.456;2022-07-05T12:19:58;8.13;;;7.40;;
66169;SDS011;52971;44.024;20.456;2022-07-05T12:22:31;7.20;;;6.50;;
66169;SDS011;52971;44.024;20.456;2022-07-05T12:24:57;10.23;;;6.75;;
66169;SDS011;52971;44.024;20.456;2022-07-05T12:27:27;8.48;;;6.85;;
66169;SDS011;52971;44.024;20.456;2022-07-05T12:29:53;7.57;;;6.90;;
66169;SDS011;52971;44.024;20.456;2022-07-05T12:32:19;9.65;;;7.05;;
66169;SDS011;52971;44.024;20.456;2022-07-05T12:34:45;6.97;;;6.22;;
66169;SDS011;52971;44.024;20.456;2022-07-05T12:37:10;6.55;;;5.70;;
66169;SDS011;52971;44.024;20.456;2022-07-05T12:39:46;6.63;;;5.85;;
66169;SDS011;52971;44.024;20.456;2022-07-05T12:42:28;10.25;;;6.38;;
66169;SDS011;52971;44.024;20.456;2022-07-05T12:50:20;8.15;;;6.85;;
66169;SDS011;52971;44.024;20.456;2022-07-05T12:52:54;9.07;;;7.93;;
66169;SDS011;52971;44.024;20.456;2022-07-05T12:56:00;9.45;;;7.88;;
66169;SDS011;52971;44.024;20.456;2022-07-05T13:01:28;10.98;;;8.30;;
66169;SDS011;52971;44.024;20.456;2022-07-05T13:14:54;10.23;;;8.80;;
66169;SDS011;52971;44.024;20.456;2022-07-05T13:17:22;9.30;;;8.23;;
66169;SDS011;52971;44.024;20.456;2022-07-05T13:19:49;14.00;;;9.13;;
66169;SDS011;52971;44.024;20.456;2022-07-05T13:22:17;14.52;;;10.05;;
66169;SDS011;52971;44.024;20.456;2022-07-05T13:24:43;13.63;;;9.45;;
66169;SDS011;52971;44.024;20.456;2022-07-05T13:27:10;13.27;;;9.45;;
66169;SDS011;52971;44.024;20.456;2022-07-05T13:29:38;11.18;;;9.05;;
66169;SDS011;52971;44.024;20.456;2022-07-05T13:32:04;26.67;;;14.50;;
66169;SDS011;52971;44.024;20.456;2022-07-05T13:34:30;55.38;;;25.05;;
66169;SDS011;52971;44.024;20.456;2022-07-05T13:36:56;20.88;;;12.98;;
66169;SDS011;52971;44.024;20.456;2022-07-05T13:39:22;23.50;;;12.48;;
66169;SDS011;52971;44.024;20.456;2022-07-05T13:41:49;11.38;;;10.15;;
66169;SDS011;52971;44.024;20.456;2022-07-05T13:44:17;33.58;;;17.42;;
66169;SDS011;52971;44.024;20.456;2022-07-05T13:46:44;11.35;;;9.88;;
66169;SDS011;52971;44.024;20.456;2022-07-05T13:49:09;13.07;;;11.55;;
66169;SDS011;52971;44.024;20.456;2022-07-05T13:51:35;12.05;;;10.40;;
66169;SDS011;52971;44.024;20.456;2022-07-05T13:54:01;11.20;;;10.02;;
66169;SDS011;52971;44.024;20.456;2022-07-05T13:56:26;12.23;;;10.98;;
66169;SDS011;52971;44.024;20.456;2022-07-05T13:58:53;14.23;;;10.07;;
66169;SDS011;52971;44.024;20.456;2022-07-05T14:01:19;13.40;;;10.85;;
66169;SDS011;52971;44.024;20.456;2022-07-05T14:03:49;13.43;;;10.18;;
66169;SDS011;52971;44.024;20.456;2022-07-05T14:06:15;11.45;;;9.57;;
66169;SDS011;52971;44.024;20.456;2022-07-05T14:08:40;11.25;;;9.90;;
66169;SDS011;52971;44.024;20.456;2022-07-05T14:11:07;15.25;;;10.50;;
66169;SDS011;52971;44.024;20.456;2022-07-05T14:13:34;12.30;;;11.10;;
66169;SDS011;52971;44.024;20.456;2022-07-05T14:16:00;13.10;;;10.93;;
66169;SDS011;52971;44.024;20.456;2022-07-05T14:18:25;11.10;;;10.05;;
66169;SDS011;52971;44.024;20.456;2022-07-05T14:20:51;13.77;;;10.52;;
66169;SDS011;52971;44.024;20.456;2022-07-05T14:23:17;12.25;;;9.95;;
66169;SDS011;52971;44.024;20.456;2022-07-05T14:25:43;10.15;;;9.23;;
66169;SDS011;52971;44.024;20.456;2022-07-05T14:28:08;11.20;;;8.82;;
66169;SDS011;52971;44.024;20.456;2022-07-05T14:30:38;10.98;;;8.60;;
66169;SDS011;52971;44.024;20.456;2022-07-05T14:33:06;11.60;;;9.05;;
66169;SDS011;52971;44.024;20.456;2022-07-05T14:35:32;12.10;;;8.95;;
66169;SDS011;52971;44.024;20.456;2022-07-05T14:37:58;11.95;;;8.77;;
66169;SDS011;52971;44.024;20.456;2022-07-05T14:40:24;11.77;;;7.72;;
66169;SDS011;52971;44.024;20.456;2022-07-05T14:42:54;15.23;;;7.30;;
66169;SDS011;52971;44.024;20.456;2022-07-05T14:45:20;9.80;;;7.28;;
66169;SDS011;52971;44.024;20.456;2022-07-05T14:47:47;8.15;;;7.18;;
66169;SDS011;52971;44.024;20.456;2022-07-05T14:50:13;10.25;;;7.47;;
66169;SDS011;52971;44.024;20.456;2022-07-05T14:52:39;11.07;;;6.55;;
66169;SDS011;52971;44.024;20.456;2022-07-05T14:55:05;12.20;;;6.05;;
66169;SDS011;52971;44.024;20.456;2022-07-05T14:57:31;11.70;;;7.40;;
66169;SDS011;52971;44.024;20.456;2022-07-05T14:59:56;8.57;;;6.35;;
66169;SDS011;52971;44.024;20.456;2022-07-05T15:02:22;8.65;;;6.32;;